createdAt,value
2024-02-14T00:00:45.998Z,969.34
2024-02-14T00:01:45.940Z,969.37
2024-02-14T00:02:46.012Z,969.42
2024-02-14T00:03:45.919Z,969.44
2024-02-14T00:04:45.917Z,969.46
2024-02-14T00:05:45.925Z,969.47
2024-02-14T00:06:45.886Z,969.50
2024-02-14T00:07:45.838Z,969.48
2024-02-14T00:08:45.881Z,969.46
2024-02-14T00:09:45.824Z,969.45
2024-02-14T00:10:45.800Z,969.44
2024-02-14T00:11:45.828Z,969.51
2024-02-14T00:12:45.833Z,969.51
2024-02-14T00:13:45.773Z,969.50
2024-02-14T00:14:45.782Z,969.50
2024-02-14T00:15:45.743Z,969.49
2024-02-14T00:16:45.754Z,969.52
2024-02-14T00:17:45.811Z,969.50
2024-02-14T00:18:45.823Z,969.47
2024-02-14T00:19:45.792Z,969.53
2024-02-14T00:20:45.724Z,969.55
2024-02-14T00:21:45.685Z,969.53
2024-02-14T00:22:45.672Z,969.50
2024-02-14T00:23:45.720Z,969.53
2024-02-14T00:24:45.655Z,969.53
2024-02-14T00:25:45.641Z,969.55
2024-02-14T00:26:45.666Z,969.55
2024-02-14T00:27:45.645Z,969.52
2024-02-14T00:28:45.617Z,969.55
2024-02-14T00:29:45.645Z,969.58
2024-02-14T00:30:45.603Z,969.58
2024-02-14T00:31:45.658Z,969.50
2024-02-14T00:32:45.774Z,969.63
2024-02-14T00:33:45.844Z,969.62
2024-02-14T00:34:45.774Z,969.58
2024-02-14T00:35:45.567Z,969.60
2024-02-14T00:36:45.531Z,969.58
2024-02-14T00:37:45.550Z,969.58
2024-02-14T00:38:45.531Z,969.56
2024-02-14T00:39:45.493Z,969.55
2024-02-14T00:40:45.513Z,969.55
2024-02-14T00:41:45.508Z,969.52
2024-02-14T00:42:45.456Z,969.49
2024-02-14T00:43:45.442Z,969.50
2024-02-14T00:44:45.558Z,969.47
2024-02-14T00:45:45.434Z,969.42
2024-02-14T00:46:45.413Z,969.48
2024-02-14T00:47:45.526Z,969.41
2024-02-14T00:48:45.561Z,969.33
2024-02-14T00:49:45.509Z,969.36
2024-02-14T00:50:45.397Z,969.33
2024-02-14T00:51:45.360Z,969.33
2024-02-14T00:52:45.367Z,969.34
2024-02-14T00:53:45.411Z,969.27
2024-02-14T00:54:45.329Z,969.29
2024-02-14T00:55:45.312Z,969.29
2024-02-14T00:56:45.305Z,969.26
2024-02-14T00:57:45.308Z,969.30
2024-02-14T00:58:45.276Z,969.30
2024-02-14T00:59:45.281Z,969.30
2024-02-14T01:00:45.270Z,969.33
2024-02-14T01:01:45.253Z,969.34
2024-02-14T01:02:45.288Z,969.35
2024-02-14T01:03:45.288Z,969.37
2024-02-14T01:04:45.244Z,969.36
2024-02-14T01:05:45.246Z,969.36
2024-02-14T01:06:45.286Z,969.42
2024-02-14T01:07:45.175Z,969.42
2024-02-14T01:08:45.363Z,969.42
2024-02-14T01:09:45.158Z,969.43
2024-02-14T01:10:45.137Z,969.44
2024-02-14T01:11:45.166Z,969.48
2024-02-14T01:12:45.156Z,969.50
2024-02-14T01:13:45.125Z,969.46
2024-02-14T01:14:45.150Z,969.48
2024-02-14T01:15:45.085Z,969.52
2024-02-14T01:16:45.076Z,969.46
2024-02-14T01:17:45.173Z,969.48
2024-02-14T01:18:45.190Z,969.48
2024-02-14T01:19:45.122Z,969.48
2024-02-14T01:20:45.100Z,969.43
2024-02-14T01:21:45.023Z,969.45
2024-02-14T01:22:45.009Z,969.47
2024-02-14T01:23:45.070Z,969.47
2024-02-14T01:24:44.990Z,969.47
2024-02-14T01:25:44.997Z,969.47
2024-02-14T01:26:45.001Z,969.43
2024-02-14T01:27:44.956Z,969.43
2024-02-14T01:28:44.941Z,969.37
2024-02-14T01:29:44.995Z,969.37
2024-02-14T01:30:44.937Z,969.36
2024-02-14T01:31:44.912Z,969.43
2024-02-14T01:32:44.971Z,969.40
2024-02-14T01:33:45.175Z,969.39
2024-02-14T01:34:44.914Z,969.41
2024-02-14T01:35:44.894Z,969.41
2024-02-14T01:36:44.921Z,969.45
2024-02-14T01:37:44.872Z,969.41
2024-02-14T01:38:44.912Z,969.40
2024-02-14T01:39:44.830Z,969.41
2024-02-14T01:40:44.821Z,969.42
2024-02-14T01:41:44.843Z,969.41
2024-02-14T01:42:44.782Z,969.48
2024-02-14T01:43:45.749Z,969.46
2024-02-14T01:44:44.856Z,969.44
2024-02-14T01:45:44.783Z,969.46
2024-02-14T01:46:44.778Z,969.39
2024-02-14T01:47:44.790Z,969.42
2024-02-14T01:48:44.911Z,969.41
2024-02-14T01:49:44.753Z,969.46
2024-02-14T01:50:44.733Z,969.44
2024-02-14T01:51:44.701Z,969.39
2024-02-14T01:52:44.690Z,969.38
2024-02-14T01:53:44.714Z,969.36
2024-02-14T01:54:44.690Z,969.37
2024-02-14T01:55:44.658Z,969.36
2024-02-14T01:56:44.650Z,969.33
2024-02-14T01:57:44.629Z,969.35
2024-02-14T01:58:44.673Z,969.34
2024-02-14T01:59:44.640Z,969.35
2024-02-14T02:00:44.665Z,969.27
2024-02-14T02:01:44.591Z,969.27
2024-02-14T02:02:44.603Z,969.29
2024-02-14T02:03:44.625Z,969.31
2024-02-14T02:04:44.546Z,969.30
2024-02-14T02:05:44.595Z,969.28
2024-02-14T02:06:44.536Z,969.31
2024-02-14T02:07:44.523Z,969.25
2024-02-14T02:08:44.575Z,969.22
2024-02-14T02:09:44.514Z,969.23
2024-02-14T02:10:44.525Z,969.23
2024-02-14T02:11:44.540Z,969.27
2024-02-14T02:12:44.482Z,969.28
2024-02-14T02:13:44.455Z,969.20
2024-02-14T02:14:44.487Z,969.21
2024-02-14T02:15:44.429Z,969.19
2024-02-14T02:16:44.418Z,969.18
2024-02-14T02:17:44.438Z,969.19
2024-02-14T02:18:44.601Z,969.15
2024-02-14T02:19:44.481Z,969.18
2024-02-14T02:20:44.719Z,969.14
2024-02-14T02:21:44.371Z,969.08
2024-02-14T02:22:44.361Z,969.10
2024-02-14T02:23:44.404Z,969.08
2024-02-14T02:24:44.320Z,969.07
2024-02-14T02:25:44.331Z,969.07
2024-02-14T02:26:44.319Z,969.04
2024-02-14T02:27:44.349Z,969.00
2024-02-14T02:28:44.404Z,968.98
2024-02-14T02:29:44.294Z,969.04
2024-02-14T02:30:44.266Z,969.01
2024-02-14T02:31:44.267Z,968.96
2024-02-14T02:32:44.398Z,968.96
2024-02-14T02:33:44.401Z,969.01
2024-02-14T02:34:44.236Z,968.97
2024-02-14T02:35:44.227Z,968.92
2024-02-14T02:36:44.225Z,968.95
2024-02-14T02:37:44.203Z,968.95
2024-02-14T02:38:44.307Z,968.92
2024-02-14T02:39:44.165Z,968.91
2024-02-14T02:40:44.150Z,968.94
2024-02-14T02:41:44.210Z,968.93
2024-02-14T02:42:44.145Z,968.94
2024-02-14T02:43:44.148Z,968.94
2024-02-14T02:44:44.160Z,968.96
2024-02-14T02:45:44.096Z,968.95
2024-02-14T02:46:44.086Z,968.97
2024-02-14T02:47:44.122Z,968.97
2024-02-14T02:48:44.223Z,968.96
2024-02-14T02:49:44.076Z,968.97
2024-02-14T02:50:44.084Z,969.01
2024-02-14T02:51:44.052Z,968.94
2024-02-14T02:52:44.035Z,968.96
2024-02-14T02:53:44.024Z,969.03
2024-02-14T02:54:44.057Z,969.02
2024-02-14T02:55:43.989Z,969.02
2024-02-14T02:56:44.029Z,969.08
2024-02-14T02:57:43.977Z,969.11
2024-02-14T02:58:44.065Z,969.15
2024-02-14T02:59:44.127Z,969.10
2024-02-14T03:00:43.949Z,969.14
2024-02-14T03:01:43.925Z,969.09
2024-02-14T03:02:43.980Z,969.17
2024-02-14T03:03:44.008Z,969.10
2024-02-14T03:04:51.830Z,969.12
2024-02-14T03:05:43.933Z,969.13
2024-02-14T03:06:43.882Z,969.12
2024-02-14T03:07:43.881Z,969.17
2024-02-14T03:08:43.939Z,969.13
2024-02-14T03:09:43.864Z,969.18
2024-02-14T03:10:43.819Z,969.20
2024-02-14T03:11:43.846Z,969.19
2024-02-14T03:12:43.825Z,969.19
2024-02-14T03:13:43.791Z,969.20
2024-02-14T03:14:43.820Z,969.25
2024-02-14T03:15:43.776Z,969.22
2024-02-14T03:16:43.775Z,969.24
2024-02-14T03:17:43.921Z,969.23
2024-02-14T03:18:43.899Z,969.24
2024-02-14T03:19:43.794Z,969.23
2024-02-14T03:20:43.769Z,969.25
2024-02-14T03:21:43.701Z,969.32
2024-02-14T03:22:43.707Z,969.33
2024-02-14T03:23:43.711Z,969.26
2024-02-14T03:24:43.682Z,969.30
2024-02-14T03:25:43.647Z,969.35
2024-02-14T03:26:43.668Z,969.38
2024-02-14T03:27:43.648Z,969.36
2024-02-14T03:28:43.657Z,969.32
2024-02-14T03:29:43.644Z,969.33
2024-02-14T03:30:43.661Z,969.34
2024-02-14T03:31:43.589Z,969.40
2024-02-14T03:32:43.718Z,969.41
2024-02-14T03:33:43.764Z,969.39
2024-02-14T03:34:43.567Z,969.44
2024-02-14T03:35:43.637Z,969.43
2024-02-14T03:36:43.541Z,969.35
2024-02-14T03:37:43.540Z,969.35
2024-02-14T03:38:43.691Z,969.37
2024-02-14T03:39:43.545Z,969.35
2024-02-14T03:40:43.542Z,969.30
2024-02-14T03:41:43.516Z,969.30
2024-02-14T03:42:43.481Z,969.25
2024-02-14T03:43:43.476Z,969.22
2024-02-14T03:44:43.477Z,969.17
2024-02-14T03:45:43.499Z,969.14
2024-02-14T03:46:43.423Z,969.12
2024-02-14T03:47:43.634Z,969.19
2024-02-14T03:48:43.602Z,969.20
2024-02-14T03:49:43.457Z,969.25
2024-02-14T03:50:43.406Z,969.22
2024-02-14T03:51:43.391Z,969.25
2024-02-14T03:52:43.362Z,969.19
2024-02-14T03:53:43.451Z,969.26
2024-02-14T03:54:43.346Z,969.30
2024-02-14T03:55:43.323Z,969.28
2024-02-14T03:56:43.366Z,969.26
2024-02-14T03:57:43.465Z,969.28
2024-02-14T03:58:43.308Z,969.37
2024-02-14T03:59:43.306Z,969.35
2024-02-14T04:00:43.293Z,969.36
2024-02-14T04:01:43.267Z,969.31
2024-02-14T04:02:43.285Z,969.36
2024-02-14T04:03:43.285Z,969.39
2024-02-14T04:04:43.247Z,969.36
2024-02-14T04:05:43.337Z,969.37
2024-02-14T04:06:43.280Z,969.38
2024-02-14T04:07:43.222Z,969.40
2024-02-14T04:08:43.286Z,969.38
2024-02-14T04:09:43.262Z,969.44
2024-02-14T04:10:43.168Z,969.45
2024-02-14T04:11:43.204Z,969.43
2024-02-14T04:12:43.147Z,969.45
2024-02-14T04:13:43.137Z,969.51
2024-02-14T04:14:43.162Z,969.52
2024-02-14T04:15:43.124Z,969.60
2024-02-14T04:16:43.109Z,969.59
2024-02-14T04:17:43.182Z,969.56
2024-02-14T04:18:43.202Z,969.60
2024-02-14T04:19:43.139Z,969.59
2024-02-14T04:20:43.106Z,969.66
2024-02-14T04:21:43.222Z,969.66
2024-02-14T04:22:43.037Z,969.68
2024-02-14T04:23:43.094Z,969.71
2024-02-14T04:24:43.015Z,969.66
2024-02-14T04:25:42.997Z,969.67
2024-02-14T04:26:43.071Z,969.69
2024-02-14T04:27:42.982Z,969.66
2024-02-14T04:28:42.976Z,969.69
2024-02-14T04:29:43.053Z,969.71
2024-02-14T04:30:43.110Z,969.72
2024-02-14T04:31:42.952Z,969.74
2024-02-14T04:32:43.138Z,969.77
2024-02-14T04:33:43.078Z,969.72
2024-02-14T04:34:43.152Z,969.62
2024-02-14T04:35:42.994Z,969.59
2024-02-14T04:36:42.881Z,969.68
2024-02-14T04:37:42.879Z,969.70
2024-02-14T04:38:42.911Z,969.62
2024-02-14T04:39:42.870Z,969.58
2024-02-14T04:40:42.853Z,969.57
2024-02-14T04:41:53.898Z,969.56
2024-02-14T04:42:42.843Z,969.59
2024-02-14T04:43:42.794Z,969.52
2024-02-14T04:44:42.826Z,969.54
2024-02-14T04:45:42.782Z,969.52
2024-02-14T04:46:42.773Z,969.54
2024-02-14T04:47:42.946Z,969.63
2024-02-14T04:48:42.828Z,969.59
2024-02-14T04:49:42.760Z,969.64
2024-02-14T04:50:42.768Z,969.65
2024-02-14T04:51:42.705Z,969.68
2024-02-14T04:52:42.697Z,969.61
2024-02-14T04:53:42.740Z,969.65
2024-02-14T04:54:42.674Z,969.65
2024-02-14T04:55:42.668Z,969.65
2024-02-14T04:56:42.673Z,969.64
2024-02-14T04:57:42.655Z,969.60
2024-02-14T04:58:42.631Z,969.64
2024-02-14T04:59:42.700Z,969.63
2024-02-14T05:00:42.684Z,969.68
2024-02-14T05:01:42.595Z,969.62
2024-02-14T05:02:42.608Z,969.63
2024-02-14T05:03:42.615Z,969.66
2024-02-14T05:04:42.568Z,969.63
2024-02-14T05:05:42.632Z,969.65
2024-02-14T05:06:42.719Z,969.67
2024-02-14T05:07:42.556Z,969.61
2024-02-14T05:08:42.568Z,969.61
2024-02-14T05:09:42.507Z,969.65
2024-02-14T05:10:42.527Z,969.60
2024-02-14T05:11:42.524Z,969.65
2024-02-14T05:12:42.501Z,969.66
2024-02-14T05:13:42.498Z,969.62
2024-02-14T05:14:42.503Z,969.64
2024-02-14T05:15:42.446Z,969.63
2024-02-14T05:16:42.448Z,969.62
2024-02-14T05:17:42.496Z,969.60
2024-02-14T05:18:42.572Z,969.61
2024-02-14T05:19:42.462Z,969.59
2024-02-14T05:20:42.398Z,969.64
2024-02-14T05:21:42.417Z,969.58
2024-02-14T05:22:42.378Z,969.52
2024-02-14T05:23:44.066Z,969.48
2024-02-14T05:24:42.361Z,969.57
2024-02-14T05:25:42.376Z,969.53
2024-02-14T05:26:42.364Z,969.51
2024-02-14T05:27:42.316Z,969.51
2024-02-14T05:28:42.310Z,969.53
2024-02-14T05:29:42.326Z,969.50
2024-02-14T05:30:42.296Z,969.49
2024-02-14T05:31:42.276Z,969.52
2024-02-14T05:32:42.340Z,969.48
2024-02-14T05:33:42.357Z,969.48
2024-02-14T05:34:42.308Z,969.56
2024-02-14T05:35:42.310Z,969.51
2024-02-14T05:36:42.211Z,969.47
2024-02-14T05:37:42.212Z,969.45
2024-02-14T05:38:42.220Z,969.45
2024-02-14T05:39:42.180Z,969.40
2024-02-14T05:40:42.191Z,969.40
2024-02-14T05:41:42.194Z,969.39
2024-02-14T05:42:42.618Z,969.39
2024-02-14T05:43:42.141Z,969.42
2024-02-14T05:44:42.189Z,969.39
2024-02-14T05:45:42.130Z,969.47
2024-02-14T05:46:42.112Z,969.45
2024-02-14T05:47:42.259Z,969.49
2024-02-14T05:48:43.209Z,969.48
2024-02-14T05:49:42.242Z,969.42
2024-02-14T05:50:42.140Z,969.40
2024-02-14T05:51:42.049Z,969.39
2024-02-14T05:52:42.052Z,969.36
2024-02-14T05:53:42.041Z,969.35
2024-02-14T05:54:42.020Z,969.40
2024-02-14T05:55:42.008Z,969.46
2024-02-14T05:56:42.031Z,969.48
2024-02-14T05:57:41.996Z,969.48
2024-02-14T05:58:41.967Z,969.45
2024-02-14T05:59:43.167Z,969.45
2024-02-14T06:00:42.195Z,969.49
2024-02-14T06:01:41.973Z,969.51
2024-02-14T06:02:42.039Z,969.54
2024-02-14T06:03:41.963Z,969.58
2024-02-14T06:04:41.943Z,969.57
2024-02-14T06:05:41.914Z,969.58
2024-02-14T06:06:41.923Z,969.58
2024-02-14T06:07:41.867Z,969.56
2024-02-14T06:08:41.924Z,969.52
2024-02-14T06:09:41.852Z,969.54
2024-02-14T06:10:41.874Z,969.59
2024-02-14T06:11:41.915Z,969.59
2024-02-14T06:12:41.842Z,969.59
2024-02-14T06:13:42.594Z,969.56
2024-02-14T06:14:41.857Z,969.55
2024-02-14T06:15:41.794Z,969.54
2024-02-14T06:16:41.797Z,969.54
2024-02-14T06:17:41.822Z,969.49
2024-02-14T06:18:41.924Z,969.48
2024-02-14T06:19:41.762Z,969.50
2024-02-14T06:20:41.848Z,969.55
2024-02-14T06:21:41.720Z,969.51
2024-02-14T06:22:47.655Z,969.51
2024-02-14T06:23:41.749Z,969.49
2024-02-14T06:24:41.718Z,969.49
2024-02-14T06:25:41.679Z,969.54
2024-02-14T06:26:41.718Z,969.52
2024-02-14T06:27:41.653Z,969.50
2024-02-14T06:28:41.650Z,969.50
2024-02-14T06:29:41.674Z,969.43
2024-02-14T06:30:41.642Z,969.46
2024-02-14T06:31:41.637Z,969.50
2024-02-14T06:32:41.884Z,969.49
2024-02-14T06:33:41.805Z,969.49
2024-02-14T06:34:41.731Z,969.53
2024-02-14T06:35:41.783Z,969.53
2024-02-14T06:36:41.687Z,969.49
2024-02-14T06:37:48.635Z,969.53
2024-02-14T06:38:41.578Z,969.55
2024-02-14T06:39:41.530Z,969.58
2024-02-14T06:40:41.547Z,969.61
2024-02-14T06:41:41.580Z,969.63
2024-02-14T06:42:41.499Z,969.63
2024-02-14T06:43:41.492Z,969.64
2024-02-14T06:44:41.488Z,969.64
2024-02-14T06:45:41.461Z,969.63
2024-02-14T06:46:41.467Z,969.66
2024-02-14T06:47:41.497Z,969.68
2024-02-14T06:48:41.566Z,969.65
2024-02-14T06:49:41.484Z,969.68
2024-02-14T06:50:41.491Z,969.72
2024-02-14T06:51:41.386Z,969.69
2024-02-14T06:52:41.387Z,969.79
2024-02-14T06:53:41.411Z,969.76
2024-02-14T06:54:41.361Z,969.74
2024-02-14T06:55:41.361Z,969.66
2024-02-14T06:56:41.420Z,969.58
2024-02-14T06:57:41.330Z,969.60
2024-02-14T06:58:41.320Z,969.59
2024-02-14T06:59:41.323Z,969.60
2024-02-14T07:00:41.420Z,969.62
2024-02-14T07:01:41.284Z,969.65
2024-02-14T07:02:41.372Z,969.61
2024-02-14T07:03:41.254Z,969.59
2024-02-14T07:04:41.385Z,969.56
2024-02-14T07:05:41.302Z,969.61
2024-02-14T07:06:41.291Z,969.57
2024-02-14T07:07:41.208Z,969.62
2024-02-14T07:08:41.245Z,969.61
2024-02-14T07:09:41.203Z,969.62
2024-02-14T07:10:41.192Z,969.56
2024-02-14T07:11:41.196Z,969.65
2024-02-14T07:12:41.186Z,969.74
2024-02-14T07:13:41.148Z,969.75
2024-02-14T07:14:41.156Z,969.75
2024-02-14T07:15:41.126Z,969.80
2024-02-14T07:16:41.124Z,969.81
2024-02-14T07:17:41.189Z,969.80
2024-02-14T07:18:41.284Z,969.81
2024-02-14T07:19:41.126Z,969.76
2024-02-14T07:20:41.108Z,969.80
2024-02-14T07:21:41.052Z,969.79
2024-02-14T07:22:41.079Z,969.85
2024-02-14T07:23:41.080Z,969.79
2024-02-14T07:24:41.090Z,969.82
2024-02-14T07:25:41.014Z,969.83
2024-02-14T07:26:41.037Z,969.83
2024-02-14T07:27:41.256Z,969.77
2024-02-14T07:28:40.980Z,969.81
2024-02-14T07:29:41.074Z,969.80
2024-02-14T07:30:41.092Z,969.81
2024-02-14T07:31:41.005Z,969.82
2024-02-14T07:32:41.085Z,969.77
2024-02-14T07:33:41.172Z,969.81
2024-02-14T07:34:40.980Z,969.84
2024-02-14T07:35:41.022Z,969.80
2024-02-14T07:36:40.893Z,969.84
2024-02-14T07:37:40.924Z,969.76
2024-02-14T07:38:40.889Z,969.78
2024-02-14T07:39:40.854Z,969.86
2024-02-14T07:40:40.876Z,969.81
2024-02-14T07:41:40.941Z,969.78
2024-02-14T07:42:40.839Z,969.85
2024-02-14T07:43:40.833Z,969.83
2024-02-14T07:44:40.828Z,969.76
2024-02-14T07:45:40.826Z,969.88
2024-02-14T07:46:40.807Z,969.82
2024-02-14T07:47:40.879Z,969.86
2024-02-14T07:48:40.855Z,969.86
2024-02-14T07:49:40.858Z,969.89
2024-02-14T07:50:40.751Z,969.89
2024-02-14T07:51:40.732Z,969.90
2024-02-14T07:52:40.741Z,969.93
2024-02-14T07:53:40.759Z,969.96
2024-02-14T07:54:40.695Z,969.97
2024-02-14T07:55:40.749Z,969.86
2024-02-14T07:56:40.726Z,969.96
2024-02-14T07:57:40.668Z,969.91
2024-02-14T07:58:40.702Z,969.92
2024-02-14T07:59:40.679Z,969.88
2024-02-14T08:00:40.664Z,969.97
2024-02-14T08:01:40.629Z,969.97
2024-02-14T08:02:40.647Z,970.00
2024-02-14T08:03:40.660Z,969.98
2024-02-14T08:04:40.598Z,970.03
2024-02-14T08:05:40.638Z,969.98
2024-02-14T08:06:40.597Z,969.99
2024-02-14T08:07:40.558Z,970.05
2024-02-14T08:08:40.590Z,969.96
2024-02-14T08:09:40.552Z,970.02
2024-02-14T08:10:40.530Z,970.09
2024-02-14T08:11:40.526Z,970.13
2024-02-14T08:12:40.498Z,970.28
2024-02-14T08:13:40.486Z,970.27
2024-02-14T08:14:40.560Z,970.29
2024-02-14T08:15:41.743Z,970.24
2024-02-14T08:16:40.793Z,970.31
2024-02-14T08:17:41.792Z,970.36
2024-02-14T08:18:40.577Z,970.31
2024-02-14T08:19:40.584Z,970.28
2024-02-14T08:20:40.424Z,970.25
2024-02-14T08:21:40.425Z,970.24
2024-02-14T08:22:40.393Z,970.28
2024-02-14T08:23:40.427Z,970.28
2024-02-14T08:24:40.374Z,970.32
2024-02-14T08:25:40.365Z,970.21
2024-02-14T08:26:40.356Z,970.25
2024-02-14T08:27:40.351Z,970.28
2024-02-14T08:28:40.324Z,970.33
2024-02-14T08:29:41.199Z,970.31
2024-02-14T08:30:40.317Z,970.32
2024-02-14T08:31:40.305Z,970.36
2024-02-14T08:32:40.424Z,970.36
2024-02-14T08:33:40.555Z,970.42
2024-02-14T08:34:40.413Z,970.44
2024-02-14T08:35:43.558Z,970.39
2024-02-14T08:36:40.306Z,970.50
2024-02-14T08:37:40.295Z,970.45
2024-02-14T08:38:40.295Z,970.50
2024-02-14T08:39:40.302Z,970.48
2024-02-14T08:40:40.295Z,970.41
2024-02-14T08:41:40.305Z,970.41
2024-02-14T08:42:40.546Z,970.43
2024-02-14T08:43:40.246Z,970.42
2024-02-14T08:44:40.238Z,970.37
2024-02-14T08:45:40.155Z,970.36
2024-02-14T08:46:40.347Z,970.37
2024-02-14T08:47:40.310Z,970.37
2024-02-14T08:48:40.272Z,970.42
2024-02-14T08:49:40.182Z,970.43
2024-02-14T08:50:40.551Z,970.48
2024-02-14T08:51:40.400Z,970.51
2024-02-14T08:52:40.143Z,970.51
2024-02-14T08:53:40.199Z,970.49
2024-02-14T08:54:40.988Z,970.51
2024-02-14T08:55:40.243Z,970.48
2024-02-14T08:56:40.139Z,970.50
2024-02-14T08:57:40.044Z,970.52
2024-02-14T08:58:40.071Z,970.51
2024-02-14T08:59:40.072Z,970.51
2024-02-14T09:00:40.107Z,970.54
2024-02-14T09:01:40.087Z,970.50
2024-02-14T09:02:40.038Z,970.53
2024-02-14T09:03:40.015Z,970.54
2024-02-14T09:04:40.016Z,970.53
2024-02-14T09:05:40.098Z,970.51
2024-02-14T09:06:40.094Z,970.53
2024-02-14T09:07:40.032Z,970.56
2024-02-14T09:08:40.010Z,970.47
2024-02-14T09:09:39.958Z,970.49
2024-02-14T09:10:39.914Z,970.53
2024-02-14T09:11:39.932Z,970.55
2024-02-14T09:12:39.841Z,970.57
2024-02-14T09:13:39.971Z,970.54
2024-02-14T09:14:39.933Z,970.51
2024-02-14T09:15:40.114Z,970.53
2024-02-14T09:16:39.838Z,970.53
2024-02-14T09:17:39.959Z,970.44
2024-02-14T09:18:40.467Z,970.53
2024-02-14T09:19:39.899Z,970.52
2024-02-14T09:20:40.074Z,970.57
2024-02-14T09:21:39.818Z,970.55
2024-02-14T09:22:39.795Z,970.53
2024-02-14T09:23:39.815Z,970.50
2024-02-14T09:24:39.824Z,970.49
2024-02-14T09:25:39.816Z,970.50
2024-02-14T09:26:39.757Z,970.42
2024-02-14T09:27:39.684Z,970.42
2024-02-14T09:28:39.701Z,970.46
2024-02-14T09:29:39.867Z,970.47
2024-02-14T09:30:39.931Z,970.53
2024-02-14T09:31:39.647Z,970.53
2024-02-14T09:32:39.755Z,970.49
2024-02-14T09:33:39.840Z,970.50
2024-02-14T09:34:39.862Z,970.48
2024-02-14T09:35:39.695Z,970.46
2024-02-14T09:36:39.616Z,970.39
2024-02-14T09:37:39.682Z,970.41
2024-02-14T09:38:39.687Z,970.39
2024-02-14T09:39:39.642Z,970.37
2024-02-14T09:40:39.582Z,970.39
2024-02-14T09:41:39.530Z,970.39
2024-02-14T09:42:39.568Z,970.43
2024-02-14T09:43:39.532Z,970.42
2024-02-14T09:44:39.636Z,970.42
2024-02-14T09:45:39.557Z,970.41
2024-02-14T09:46:39.550Z,970.41
2024-02-14T09:47:39.613Z,970.37
2024-02-14T09:48:39.936Z,970.38
2024-02-14T09:49:39.631Z,970.37
2024-02-14T09:50:39.562Z,970.34
2024-02-14T09:51:39.489Z,970.37
2024-02-14T09:52:39.489Z,970.32
2024-02-14T09:53:39.440Z,970.33
2024-02-14T09:54:39.377Z,970.37
2024-02-14T09:55:39.370Z,970.44
2024-02-14T09:56:39.400Z,970.43
2024-02-14T09:57:39.348Z,970.34
2024-02-14T09:58:39.322Z,970.34
2024-02-14T09:59:39.362Z,970.27
2024-02-14T10:00:39.343Z,970.31
2024-02-14T10:01:39.345Z,970.33
2024-02-14T10:02:39.361Z,970.37
2024-02-14T10:03:39.277Z,970.36
2024-02-14T10:04:39.273Z,970.33
2024-02-14T10:05:39.320Z,970.34
2024-02-14T10:06:39.366Z,970.36
2024-02-14T10:07:39.229Z,970.33
2024-02-14T10:08:42.586Z,970.35
2024-02-14T10:09:39.245Z,970.41
2024-02-14T10:10:39.214Z,970.38
2024-02-14T10:11:39.226Z,970.45
2024-02-14T10:12:39.186Z,970.39
2024-02-14T10:13:39.158Z,970.43
2024-02-14T10:14:39.189Z,970.36
2024-02-14T10:15:39.144Z,970.39
2024-02-14T10:16:39.160Z,970.39
2024-02-14T10:17:39.205Z,970.39
2024-02-14T10:18:39.206Z,970.31
2024-02-14T10:19:39.142Z,970.36
2024-02-14T10:20:39.151Z,970.33
2024-02-14T10:21:40.253Z,970.41
2024-02-14T10:22:39.082Z,970.39
2024-02-14T10:23:39.070Z,970.34
2024-02-14T10:24:39.027Z,970.33
2024-02-14T10:25:39.034Z,970.34
2024-02-14T10:26:39.028Z,970.25
2024-02-14T10:27:39.017Z,970.34
2024-02-14T10:28:43.683Z,970.36
2024-02-14T10:29:39.022Z,970.42
2024-02-14T10:30:38.979Z,970.40
2024-02-14T10:31:38.979Z,970.40
2024-02-14T10:32:39.159Z,970.40
2024-02-14T10:33:39.046Z,970.44
2024-02-14T10:34:39.111Z,970.47
2024-02-14T10:35:39.015Z,970.47
2024-02-14T10:36:38.977Z,970.47
2024-02-14T10:37:38.926Z,970.50
2024-02-14T10:38:38.918Z,970.48
2024-02-14T10:39:38.877Z,970.47
2024-02-14T10:40:38.876Z,970.46
2024-02-14T10:41:38.912Z,970.43
2024-02-14T10:42:38.852Z,970.43
2024-02-14T10:43:38.869Z,970.48
2024-02-14T10:44:38.851Z,970.42
2024-02-14T10:45:38.820Z,970.44
2024-02-14T10:46:38.838Z,970.43
2024-02-14T10:47:38.896Z,970.45
2024-02-14T10:48:38.890Z,970.45
2024-02-14T10:49:38.862Z,970.48
2024-02-14T10:50:38.804Z,970.40
2024-02-14T10:51:38.753Z,970.43
2024-02-14T10:52:38.725Z,970.40
2024-02-14T10:53:38.824Z,970.40
2024-02-14T10:54:38.709Z,970.42
2024-02-14T10:55:38.717Z,970.46
2024-02-14T10:56:38.707Z,970.42
2024-02-14T10:57:38.679Z,970.42
2024-02-14T10:58:38.709Z,970.44
2024-02-14T10:59:38.687Z,970.41
2024-02-14T11:00:38.705Z,970.45
2024-02-14T11:01:38.741Z,970.41
2024-02-14T11:02:38.683Z,970.38
2024-02-14T11:03:38.681Z,970.45
2024-02-14T11:04:38.654Z,970.38
2024-02-14T11:05:38.676Z,970.35
2024-02-14T11:06:38.648Z,970.37
2024-02-14T11:07:38.584Z,970.34
2024-02-14T11:08:38.587Z,970.34
2024-02-14T11:09:40.001Z,970.37
2024-02-14T11:10:38.735Z,970.34
2024-02-14T11:11:38.545Z,970.40
2024-02-14T11:12:38.505Z,970.39
2024-02-14T11:13:38.526Z,970.37
2024-02-14T11:14:38.501Z,970.38
2024-02-14T11:15:38.470Z,970.40
2024-02-14T11:16:38.467Z,970.39
2024-02-14T11:17:38.596Z,970.32
2024-02-14T11:18:38.680Z,970.38
2024-02-14T11:19:38.909Z,970.37
2024-02-14T11:20:38.583Z,970.35
2024-02-14T11:21:38.472Z,970.32
2024-02-14T11:22:38.401Z,970.32
2024-02-14T11:23:38.417Z,970.29
2024-02-14T11:24:38.386Z,970.36
2024-02-14T11:25:38.360Z,970.32
2024-02-14T11:26:38.416Z,970.36
2024-02-14T11:27:38.514Z,970.38
2024-02-14T11:28:38.348Z,970.39
2024-02-14T11:29:38.350Z,970.34
2024-02-14T11:30:38.320Z,970.42
2024-02-14T11:31:38.298Z,970.41
2024-02-14T11:32:38.332Z,970.43
2024-02-14T11:33:38.596Z,970.48
2024-02-14T11:34:39.121Z,970.43
2024-02-14T11:35:38.263Z,970.50
2024-02-14T11:36:38.266Z,970.50
2024-02-14T11:37:38.227Z,970.47
2024-02-14T11:38:38.430Z,970.47
2024-02-14T11:39:38.250Z,970.46
2024-02-14T11:40:38.349Z,970.46
2024-02-14T11:41:38.306Z,970.40
2024-02-14T11:42:38.301Z,970.46
2024-02-14T11:43:38.159Z,970.41
2024-02-14T11:44:38.201Z,970.33
2024-02-14T11:45:38.135Z,970.39
2024-02-14T11:46:38.132Z,970.37
2024-02-14T11:47:38.173Z,970.38
2024-02-14T11:48:41.085Z,970.29
2024-02-14T11:49:38.145Z,970.35
2024-02-14T11:50:38.120Z,970.34
2024-02-14T11:51:38.083Z,970.31
2024-02-14T11:52:38.059Z,970.39
2024-02-14T11:53:38.118Z,970.33
2024-02-14T11:54:38.049Z,970.35
2024-02-14T11:55:38.043Z,970.35
2024-02-14T11:56:38.200Z,970.34
2024-02-14T11:57:38.013Z,970.33
2024-02-14T11:58:38.032Z,970.32
2024-02-14T11:59:38.009Z,970.35
2024-02-14T12:00:38.013Z,970.34
2024-02-14T12:01:37.962Z,970.36
2024-02-14T12:02:37.988Z,970.31
2024-02-14T12:03:37.968Z,970.33
2024-02-14T12:04:37.950Z,970.33
2024-02-14T12:05:38.068Z,970.34
2024-02-14T12:06:38.466Z,970.34
2024-02-14T12:07:37.913Z,970.33
2024-02-14T12:08:37.933Z,970.39
2024-02-14T12:09:37.898Z,970.39
2024-02-14T12:10:37.869Z,970.38
2024-02-14T12:11:37.884Z,970.46
2024-02-14T12:12:37.858Z,970.42
2024-02-14T12:13:37.817Z,970.43
2024-02-14T12:14:37.928Z,970.41
2024-02-14T12:15:37.813Z,970.43
2024-02-14T12:16:37.798Z,970.41
2024-02-14T12:17:37.827Z,970.35
2024-02-14T12:18:37.896Z,970.37
2024-02-14T12:19:37.834Z,970.35
2024-02-14T12:20:37.807Z,970.38
2024-02-14T12:21:37.765Z,970.37
2024-02-14T12:22:37.846Z,970.34
2024-02-14T12:23:37.741Z,970.30
2024-02-14T12:24:38.888Z,970.30
2024-02-14T12:25:37.726Z,970.28
2024-02-14T12:26:37.847Z,970.30
2024-02-14T12:27:37.664Z,970.27
2024-02-14T12:28:37.660Z,970.21